createdAt,value
2022-11-26T00:00:00.457Z,1.90
2022-11-26T00:02:31.893Z,2.10
2022-11-26T00:05:00.864Z,1.57
2022-11-26T00:07:32.153Z,6.80
2022-11-26T00:10:02.134Z,7.70
2022-11-26T00:12:34.915Z,1.90
2022-11-26T00:15:15.930Z,1.90
2022-11-26T00:17:44.369Z,3.50
2022-11-26T00:20:13.073Z,4.43
2022-11-26T00:22:45.251Z,2.27
2022-11-26T00:25:18.853Z,4.73
2022-11-26T00:27:49.489Z,3.33
2022-11-26T00:30:22.659Z,2.60
2022-11-26T00:32:51.870Z,2.20
2022-11-26T00:35:20.929Z,1.20
2022-11-26T00:37:51.787Z,1.57
2022-11-26T00:40:24.893Z,5.10
2022-11-26T00:43:01.205Z,2.33
2022-11-26T00:45:32.225Z,6.23
2022-11-26T00:48:01.974Z,1.47
2022-11-26T00:50:35.095Z,3.27
2022-11-26T00:53:04.229Z,1.60
2022-11-26T00:55:39.602Z,3.87
2022-11-26T00:58:22.595Z,1.43
2022-11-26T01:00:51.173Z,2.20
2022-11-26T01:03:19.866Z,2.30
2022-11-26T01:05:51.827Z,3.13
2022-11-26T01:08:29.637Z,6.13
2022-11-26T01:10:58.350Z,1.53
2022-11-26T01:13:28.461Z,2.67
2022-11-26T01:15:58.888Z,2.87
2022-11-26T01:18:27.959Z,2.97
2022-11-26T01:20:56.346Z,1.57
2022-11-26T01:23:24.790Z,2.83
2022-11-26T01:25:53.196Z,2.33
2022-11-26T01:28:21.600Z,2.53
2022-11-26T01:30:51.522Z,1.50
2022-11-26T01:33:19.941Z,1.33
2022-11-26T01:35:49.579Z,4.47
2022-11-26T01:38:17.952Z,1.67
2022-11-26T01:41:03.073Z,1.27
2022-11-26T01:43:38.118Z,4.60
2022-11-26T01:46:14.789Z,2.93
2022-11-26T01:48:43.440Z,1.20
2022-11-26T01:51:13.588Z,3.43
2022-11-26T01:53:50.608Z,3.10
2022-11-26T01:56:23.208Z,0.70
2022-11-26T01:58:57.216Z,1.27
2022-11-26T02:01:28.169Z,1.23
2022-11-26T02:04:03.841Z,1.10
2022-11-26T02:06:34.818Z,0.80
2022-11-26T02:09:05.997Z,2.20
2022-11-26T02:11:34.524Z,0.90
2022-11-26T02:14:06.265Z,1.03
2022-11-26T02:16:50.225Z,2.57
2022-11-26T02:19:44.795Z,2.47
2022-11-26T02:22:30.059Z,1.37
2022-11-26T02:25:08.801Z,1.50
2022-11-26T02:28:15.417Z,1.90
2022-11-26T02:30:47.630Z,1.20
2022-11-26T02:33:21.708Z,1.30
2022-11-26T02:35:54.642Z,3.27
2022-11-26T02:38:30.398Z,3.13
2022-11-26T02:40:58.895Z,1.07
2022-11-26T02:43:30.511Z,1.43
2022-11-26T02:46:04.464Z,1.20
2022-11-26T02:48:35.749Z,1.33
2022-11-26T02:51:09.695Z,2.10
2022-11-26T02:53:41.133Z,1.00
2022-11-26T02:56:13.118Z,1.47
2022-11-26T02:58:41.783Z,1.20
2022-11-26T03:01:16.822Z,1.27
2022-11-26T03:03:50.008Z,2.00
2022-11-26T03:06:19.886Z,3.47
2022-11-26T03:08:48.351Z,1.40
2022-11-26T03:11:16.791Z,3.00
2022-11-26T03:13:45.227Z,1.67
2022-11-26T03:16:15.131Z,1.37
2022-11-26T03:18:43.743Z,1.93
2022-11-26T03:21:12.186Z,1.10
2022-11-26T03:23:40.601Z,2.93
2022-11-26T03:26:09.420Z,1.20
2022-11-26T03:28:37.870Z,1.13
2022-11-26T03:31:06.530Z,3.73
2022-11-26T03:33:36.318Z,2.97
2022-11-26T03:36:04.941Z,2.73
2022-11-26T03:38:33.400Z,2.17
2022-11-26T03:41:05.695Z,2.43
2022-11-26T03:43:34.154Z,1.83
2022-11-26T03:46:02.642Z,1.83
2022-11-26T03:48:31.220Z,1.37
2022-11-26T03:51:01.701Z,2.27
2022-11-26T03:53:30.107Z,1.23
2022-11-26T03:55:58.513Z,5.17
2022-11-26T03:58:26.937Z,1.10
2022-11-26T04:00:55.510Z,1.17
2022-11-26T04:03:24.165Z,1.07
2022-11-26T04:05:52.698Z,2.00
2022-11-26T04:08:22.504Z,1.13
2022-11-26T04:10:50.920Z,1.60
2022-11-26T04:13:19.466Z,1.77
2022-11-26T04:15:49.593Z,1.57
2022-11-26T04:18:18.779Z,1.47
2022-11-26T04:20:52.834Z,2.37
2022-11-26T04:23:25.554Z,2.43
2022-11-26T04:25:53.990Z,1.87
2022-11-26T04:28:22.414Z,3.63
2022-11-26T04:30:52.063Z,1.83
2022-11-26T04:33:21.027Z,1.53
2022-11-26T04:35:50.875Z,1.80
2022-11-26T04:38:24.199Z,1.53
2022-11-26T04:40:55.999Z,3.20
2022-11-26T04:43:24.591Z,1.30
2022-11-26T04:45:53.082Z,1.20
2022-11-26T04:48:21.602Z,2.93
2022-11-26T04:50:50.571Z,2.87
2022-11-26T04:53:21.974Z,1.50
2022-11-26T04:55:50.990Z,1.97
2022-11-26T04:58:21.859Z,2.87
2022-11-26T05:00:51.514Z,2.30
2022-11-26T05:03:20.341Z,1.43
2022-11-26T05:05:48.895Z,1.40
2022-11-26T05:08:18.173Z,1.63
2022-11-26T05:10:46.594Z,1.10
2022-11-26T05:13:15.026Z,2.33
2022-11-26T05:15:44.895Z,2.97
2022-11-26T05:18:13.355Z,1.87
2022-11-26T05:20:42.050Z,5.53
2022-11-26T05:23:10.690Z,2.97
2022-11-26T05:25:39.155Z,3.47
2022-11-26T05:28:07.857Z,4.97
2022-11-26T05:30:36.485Z,3.00
2022-11-26T05:33:06.483Z,3.27
2022-11-26T05:35:34.933Z,4.00
2022-11-26T05:38:05.866Z,3.87
2022-11-26T05:40:34.430Z,6.33
2022-11-26T05:43:02.865Z,5.97
2022-11-26T05:45:31.352Z,3.57
2022-11-26T05:47:59.805Z,8.07
2022-11-26T05:50:29.597Z,9.77
2022-11-26T05:52:58.094Z,14.27
2022-11-26T05:55:28.646Z,12.27
2022-11-26T05:57:58.058Z,12.80
2022-11-26T06:00:27.629Z,7.57
2022-11-26T06:02:56.206Z,15.33
2022-11-26T06:05:24.701Z,16.50
2022-11-26T06:07:54.612Z,13.30
2022-11-26T06:10:23.096Z,7.73
2022-11-26T06:12:51.488Z,9.13
2022-11-26T06:15:20.245Z,6.90
2022-11-26T06:17:48.679Z,9.13
2022-11-26T06:20:17.256Z,10.03
2022-11-26T06:22:45.873Z,12.53
2022-11-26T06:25:15.906Z,7.60
2022-11-26T06:27:44.529Z,10.67
2022-11-26T06:30:14.029Z,11.27
2022-11-26T06:32:42.516Z,5.70
2022-11-26T06:35:11.504Z,4.43
2022-11-26T06:37:39.926Z,6.70
2022-11-26T06:40:09.780Z,14.57
2022-11-26T06:42:39.649Z,7.23
2022-11-26T06:45:08.845Z,6.43
2022-11-26T06:47:37.244Z,8.07
2022-11-26T06:50:10.745Z,4.50
2022-11-26T06:52:39.659Z,6.90
2022-11-26T06:55:08.725Z,4.67
2022-11-26T06:57:37.188Z,10.27
2022-11-26T07:00:08.622Z,7.50
2022-11-26T07:02:38.535Z,8.43
2022-11-26T07:05:07.007Z,6.40
2022-11-26T07:07:38.563Z,6.27
2022-11-26T07:10:08.478Z,9.57
2022-11-26T07:12:37.559Z,8.20
2022-11-26T07:15:08.462Z,7.10
2022-11-26T07:17:36.868Z,3.97
2022-11-26T07:20:06.154Z,5.30
2022-11-26T07:22:35.974Z,7.73
2022-11-26T07:25:08.096Z,11.43
2022-11-26T07:27:39.607Z,9.10
2022-11-26T07:30:12.003Z,8.53
2022-11-26T07:32:40.854Z,7.87
2022-11-26T07:35:17.742Z,9.10
2022-11-26T07:37:46.318Z,6.87
2022-11-26T07:40:15.482Z,6.53
2022-11-26T07:42:44.011Z,9.27
2022-11-26T07:45:14.074Z,4.70
2022-11-26T07:47:43.414Z,7.77
2022-11-26T07:50:12.149Z,13.83
2022-11-26T07:52:40.608Z,9.07
2022-11-26T07:55:12.666Z,9.20
2022-11-26T07:57:41.382Z,12.10
2022-11-26T08:00:11.010Z,11.70
2022-11-26T08:02:43.983Z,10.10
2022-11-26T08:05:12.527Z,12.70
2022-11-26T08:07:40.954Z,11.63
2022-11-26T08:10:10.210Z,8.33
2022-11-26T08:12:38.615Z,9.57
2022-11-26T08:15:07.790Z,13.17
2022-11-26T08:17:36.285Z,8.20
2022-11-26T08:20:07.982Z,9.10
2022-11-26T08:22:36.434Z,7.73
2022-11-26T08:25:05.095Z,11.60
2022-11-26T08:27:33.745Z,13.23
2022-11-26T08:30:02.284Z,10.40
2022-11-26T08:32:30.752Z,13.50
2022-11-26T08:34:59.225Z,9.10
2022-11-26T08:37:29.089Z,8.40
2022-11-26T08:39:57.652Z,7.27
2022-11-26T08:42:26.044Z,11.07
2022-11-26T08:44:55.044Z,8.27
2022-11-26T08:47:23.500Z,10.00
2022-11-26T08:49:51.970Z,15.20
2022-11-26T08:52:20.399Z,10.33
2022-11-26T08:54:51.080Z,5.60
2022-11-26T08:57:20.329Z,10.87
2022-11-26T08:59:48.729Z,9.60
2022-11-26T09:02:18.925Z,12.53
2022-11-26T09:04:47.677Z,9.07
2022-11-26T09:07:16.633Z,9.80
2022-11-26T09:09:45.323Z,12.40
2022-11-26T09:12:15.173Z,13.90
2022-11-26T09:14:43.882Z,13.93
2022-11-26T09:17:13.449Z,13.63
2022-11-26T09:19:42.074Z,14.40
2022-11-26T09:22:10.521Z,15.13
2022-11-26T09:24:39.234Z,19.87
2022-11-26T09:27:08.403Z,19.87
2022-11-26T09:29:38.308Z,19.47
2022-11-26T09:32:24.282Z,17.70
2022-11-26T09:34:55.807Z,34.33
2022-11-26T09:37:24.312Z,33.20
2022-11-26T09:39:54.903Z,28.13
2022-11-26T09:42:31.465Z,34.87
2022-11-26T09:45:24.790Z,22.33
2022-11-26T09:47:54.775Z,23.33
2022-11-26T09:50:29.576Z,31.47
2022-11-26T09:53:01.712Z,27.97
2022-11-26T09:55:32.544Z,33.80
2022-11-26T09:58:12.787Z,26.13
2022-11-26T10:00:44.978Z,31.00
2022-11-26T10:03:15.816Z,29.70
2022-11-26T10:05:53.694Z,37.70
2022-11-26T10:08:36.224Z,27.03
2022-11-26T10:11:11.308Z,38.03
2022-11-26T10:13:46.696Z,33.63
2022-11-26T10:16:30.886Z,29.37
2022-11-26T10:19:05.369Z,25.60
2022-11-26T10:21:58.067Z,37.80
2022-11-26T10:24:30.962Z,23.47
2022-11-26T10:27:01.942Z,31.40
2022-11-26T10:29:36.571Z,35.33
2022-11-26T10:32:14.943Z,21.77
2022-11-26T10:34:50.832Z,31.23
2022-11-26T10:37:20.280Z,35.97
2022-11-26T10:39:48.777Z,29.87
2022-11-26T10:42:20.405Z,24.97
2022-11-26T10:44:50.357Z,30.33
2022-11-26T10:47:27.166Z,26.07
2022-11-26T10:49:58.447Z,20.47
2022-11-26T10:52:29.722Z,25.30
2022-11-26T10:55:22.668Z,19.70
2022-11-26T10:57:56.501Z,30.13
2022-11-26T11:00:35.240Z,26.40
2022-11-26T11:03:13.706Z,30.13
2022-11-26T11:05:43.730Z,20.23
2022-11-26T11:08:16.461Z,25.27
2022-11-26T11:10:56.734Z,18.80
2022-11-26T11:13:39.786Z,20.53
2022-11-26T11:16:10.364Z,19.63
2022-11-26T11:18:48.411Z,17.93
2022-11-26T11:21:19.000Z,16.40
2022-11-26T11:24:07.753Z,17.50
2022-11-26T11:26:43.631Z,21.23
2022-11-26T11:29:34.032Z,21.10
2022-11-26T11:32:05.214Z,19.87
2022-11-26T11:34:38.386Z,21.20
2022-11-26T11:37:18.676Z,16.60
2022-11-26T11:39:47.210Z,19.53
2022-11-26T11:42:23.868Z,18.37
2022-11-26T11:44:53.356Z,20.00
2022-11-26T11:47:34.428Z,24.70
2022-11-26T11:50:24.563Z,17.37
2022-11-26T11:53:05.468Z,13.23
2022-11-26T11:55:52.178Z,9.57
2022-11-26T11:58:52.302Z,7.17
2022-11-26T12:01:31.992Z,13.70
2022-11-26T12:04:43.275Z,11.17
2022-11-26T12:07:43.042Z,14.00
2022-11-26T12:10:16.734Z,14.20
2022-11-26T12:12:49.006Z,14.37
2022-11-26T12:15:24.683Z,8.50
2022-11-26T12:17:59.121Z,10.23
2022-11-26T12:20:32.738Z,9.70
2022-11-26T12:23:24.177Z,7.53
2022-11-26T12:25:58.080Z,9.13
2022-11-26T12:28:31.874Z,8.10
2022-11-26T12:31:05.850Z,10.70
2022-11-26T12:33:41.543Z,12.83
2022-11-26T12:36:20.528Z,8.63
2022-11-26T12:38:54.257Z,11.07
2022-11-26T12:41:28.945Z,12.57
2022-11-26T12:44:05.698Z,14.27
2022-11-26T12:46:42.531Z,19.23
2022-11-26T12:49:21.876Z,8.63
2022-11-26T12:51:59.149Z,8.57
2022-11-26T12:54:34.912Z,25.50
2022-11-26T12:57:11.634Z,12.97
2022-11-26T12:59:49.495Z,14.70
2022-11-26T13:02:24.801Z,14.57
2022-11-26T13:04:54.997Z,10.60
2022-11-26T13:07:53.228Z,10.97
2022-11-26T13:10:38.760Z,15.10
2022-11-26T13:13:17.924Z,14.57
2022-11-26T13:15:51.383Z,9.40
2022-11-26T13:18:26.916Z,11.30
2022-11-26T13:21:09.132Z,14.83
2022-11-26T13:23:51.780Z,17.17
2022-11-26T13:26:45.626Z,21.90
2022-11-26T13:29:42.628Z,20.83
2022-11-26T13:32:44.208Z,18.33
2022-11-26T13:35:22.823Z,21.37
2022-11-26T13:38:15.106Z,17.67
2022-11-26T13:41:22.825Z,18.13
2022-11-26T13:44:23.790Z,17.77
2022-11-26T13:46:59.414Z,20.47
2022-11-26T13:49:34.287Z,15.00
2022-11-26T13:52:06.998Z,12.10
2022-11-26T13:54:39.841Z,18.33
2022-11-26T13:57:13.944Z,14.67
2022-11-26T13:59:47.706Z,13.83
2022-11-26T14:02:47.458Z,18.57
2022-11-26T14:05:18.437Z,18.47
2022-11-26T14:07:47.879Z,27.47
2022-11-26T14:10:42.737Z,21.97
2022-11-26T14:13:16.311Z,21.57
2022-11-26T14:16:02.570Z,17.83
2022-11-26T14:19:07.590Z,16.13
2022-11-26T14:22:03.827Z,23.50
2022-11-26T14:24:55.169Z,24.87
2022-11-26T14:27:25.352Z,29.60
2022-11-26T14:29:58.981Z,19.33
2022-11-26T14:32:31.181Z,17.80
2022-11-26T14:35:00.323Z,22.67
2022-11-26T14:37:32.183Z,25.87
2022-11-26T14:40:01.978Z,28.40
2022-11-26T14:42:30.982Z,21.57
2022-11-26T14:45:03.882Z,21.43
2022-11-26T14:47:33.585Z,23.10
2022-11-26T14:50:08.003Z,26.37
2022-11-26T14:52:40.610Z,28.80
2022-11-26T14:55:19.807Z,24.13
2022-11-26T14:57:52.304Z,22.07
2022-11-26T15:00:25.446Z,22.37
2022-11-26T15:02:54.489Z,26.23
2022-11-26T15:05:25.182Z,21.57
2022-11-26T15:08:01.981Z,21.93
2022-11-26T15:10:34.504Z,33.30
2022-11-26T15:13:07.923Z,29.43
2022-11-26T15:15:36.545Z,27.47
2022-11-26T15:18:07.166Z,22.63
2022-11-26T15:20:35.825Z,25.17
2022-11-26T15:23:14.593Z,21.33
2022-11-26T15:25:50.728Z,22.47
2022-11-26T15:28:21.938Z,21.37
2022-11-26T15:30:56.540Z,21.93
2022-11-26T15:33:26.211Z,21.97
2022-11-26T15:35:57.200Z,20.47
2022-11-26T15:38:28.649Z,38.20
2022-11-26T15:41:04.780Z,17.83
2022-11-26T15:43:36.473Z,19.53
2022-11-26T15:46:12.664Z,20.47
2022-11-26T15:48:52.752Z,22.70
2022-11-26T15:51:29.412Z,19.03
2022-11-26T15:54:02.850Z,28.53
2022-11-26T15:56:35.457Z,25.40
2022-11-26T15:59:08.054Z,23.20
2022-11-26T16:01:39.303Z,23.27
2022-11-26T16:04:27.770Z,23.23
2022-11-26T16:07:10.152Z,23.80
2022-11-26T16:09:40.605Z,22.80
2022-11-26T16:12:31.538Z,22.00
2022-11-26T16:15:19.161Z,25.83
2022-11-26T16:17:48.862Z,23.10
2022-11-26T16:20:22.946Z,23.50
2022-11-26T16:22:54.240Z,21.70
2022-11-26T16:25:26.272Z,24.53
2022-11-26T16:28:14.477Z,31.93
2022-11-26T16:30:45.124Z,32.90
2022-11-26T16:33:14.508Z,35.53
2022-11-26T16:35:45.626Z,27.13
2022-11-26T16:38:23.122Z,27.40
2022-11-26T16:40:53.840Z,35.67
2022-11-26T16:43:22.820Z,27.10
2022-11-26T16:45:54.773Z,32.83
2022-11-26T16:48:25.954Z,35.50
2022-11-26T16:50:55.867Z,38.77
2022-11-26T16:53:24.535Z,44.40
2022-11-26T16:55:54.854Z,50.37
2022-11-26T16:58:28.228Z,42.27
2022-11-26T17:00:58.551Z,41.73
2022-11-26T17:03:32.805Z,41.33
2022-11-26T17:06:03.355Z,41.50
2022-11-26T17:08:32.142Z,39.77
2022-11-26T17:11:01.915Z,41.30
2022-11-26T17:13:31.132Z,45.47
2022-11-26T17:16:01.483Z,48.03
2022-11-26T17:18:29.893Z,40.23
2022-11-26T17:20:58.330Z,48.33
2022-11-26T17:23:28.179Z,47.50
2022-11-26T17:25:57.029Z,51.37
2022-11-26T17:28:26.825Z,45.00
2022-11-26T17:30:56.897Z,50.80
2022-11-26T17:33:25.378Z,42.53
2022-11-26T17:35:53.918Z,44.63
2022-11-26T17:38:23.118Z,47.37
2022-11-26T17:40:51.737Z,45.73
2022-11-26T17:43:20.177Z,43.33
2022-11-26T17:45:50.074Z,45.90
2022-11-26T17:48:18.565Z,50.43
2022-11-26T17:50:46.975Z,40.20
2022-11-26T17:53:15.421Z,41.80
2022-11-26T17:55:43.916Z,35.57
2022-11-26T17:58:13.118Z,36.87
2022-11-26T18:00:41.632Z,39.30
2022-11-26T18:03:11.985Z,41.97
2022-11-26T18:05:42.405Z,42.33
2022-11-26T18:08:11.005Z,45.53
2022-11-26T18:10:41.375Z,44.90
2022-11-26T18:13:09.742Z,48.50
2022-11-26T18:15:38.135Z,50.30
2022-11-26T18:18:07.542Z,53.13
2022-11-26T18:20:37.347Z,43.33
2022-11-26T18:23:05.857Z,50.77
2022-11-26T18:25:35.441Z,38.37
2022-11-26T18:28:03.814Z,39.27
2022-11-26T18:30:32.282Z,38.23
2022-11-26T18:33:01.799Z,42.33
2022-11-26T18:35:30.225Z,48.03
2022-11-26T18:38:00.101Z,44.60
2022-11-26T18:40:28.607Z,40.50
2022-11-26T18:42:57.005Z,35.63
2022-11-26T18:45:25.517Z,43.67
2022-11-26T18:47:54.175Z,40.13
2022-11-26T18:50:22.703Z,35.97
2022-11-26T18:52:51.368Z,37.53
2022-11-26T18:55:21.603Z,42.77
2022-11-26T18:57:51.309Z,37.97
2022-11-26T19:00:20.746Z,40.30
2022-11-26T19:02:49.540Z,40.60
2022-11-26T19:05:18.306Z,43.33
2022-11-26T19:07:47.234Z,42.33
2022-11-26T19:10:15.743Z,34.47
2022-11-26T19:12:45.533Z,41.63
2022-11-26T19:15:14.093Z,45.53
2022-11-26T19:17:42.534Z,44.03
2022-11-26T19:20:12.293Z,49.33
2022-11-26T19:22:40.874Z,55.63
2022-11-26T19:25:10.069Z,49.50
2022-11-26T19:27:38.711Z,50.40
2022-11-26T19:30:10.399Z,56.10
2022-11-26T19:32:38.862Z,53.47
2022-11-26T19:35:07.882Z,51.63
2022-11-26T19:37:36.272Z,45.67
2022-11-26T19:40:05.171Z,45.87
2022-11-26T19:42:33.854Z,37.00
2022-11-26T19:45:02.360Z,36.50
2022-11-26T19:47:32.189Z,47.27
2022-11-26T19:50:00.591Z,37.73
2022-11-26T19:52:29.409Z,39.87
2022-11-26T19:54:58.199Z,36.63
2022-11-26T19:57:26.657Z,35.93
2022-11-26T19:59:55.096Z,33.63
2022-11-26T20:02:23.524Z,55.63
2022-11-26T20:04:53.368Z,43.67
2022-11-26T20:07:21.913Z,38.97
2022-11-26T20:09:52.422Z,34.03
2022-11-26T20:12:20.928Z,42.50
2022-11-26T20:14:49.550Z,38.83
2022-11-26T20:17:18.069Z,39.93
2022-11-26T20:19:47.201Z,35.53
2022-11-26T20:22:18.184Z,29.80
2022-11-26T20:24:46.748Z,32.27
2022-11-26T20:27:15.195Z,32.03
2022-11-26T20:29:43.631Z,22.33
2022-11-26T20:32:13.165Z,37.23
2022-11-26T20:34:41.933Z,39.17
2022-11-26T20:37:10.362Z,40.27
2022-11-26T20:39:40.570Z,37.33
2022-11-26T20:42:09.418Z,36.63
2022-11-26T20:44:37.815Z,36.97
2022-11-26T20:47:06.323Z,31.70
2022-11-26T20:49:42.531Z,42.83
2022-11-26T20:52:11.572Z,44.33
2022-11-26T20:54:41.493Z,37.40
2022-11-26T20:57:09.949Z,36.43
2022-11-26T20:59:39.113Z,25.80
2022-11-26T21:02:07.996Z,29.50
2022-11-26T21:04:36.472Z,27.47
2022-11-26T21:07:05.012Z,24.17
2022-11-26T21:09:33.492Z,33.43
2022-11-26T21:12:03.314Z,30.37
2022-11-26T21:14:31.913Z,32.77
2022-11-26T21:17:00.321Z,31.30
2022-11-26T21:19:28.954Z,26.13
2022-11-26T21:21:57.369Z,29.83
2022-11-26T21:24:25.951Z,33.97
2022-11-26T21:26:54.468Z,28.17
2022-11-26T21:29:24.335Z,31.47
2022-11-26T21:31:52.816Z,26.33
2022-11-26T21:34:23.927Z,24.13
2022-11-26T21:36:52.447Z,28.80
2022-11-26T21:39:21.106Z,24.07
2022-11-26T21:41:50.146Z,21.77
2022-11-26T21:44:18.841Z,19.63
2022-11-26T21:46:49.390Z,11.67
2022-11-26T21:49:17.794Z,6.33
2022-11-26T21:51:46.191Z,9.53
2022-11-26T21:54:14.967Z,10.17
2022-11-26T21:56:43.448Z,22.20
2022-11-26T21:59:11.967Z,9.87
2022-11-26T22:01:40.714Z,10.70
2022-11-26T22:04:15.219Z,8.57
2022-11-26T22:06:46.157Z,1.80
2022-11-26T22:09:15.689Z,2.73
2022-11-26T22:11:45.759Z,1.67
2022-11-26T22:14:16.732Z,3.17
2022-11-26T22:16:47.339Z,2.07
2022-11-26T22:19:17.505Z,8.90
2022-11-26T22:21:46.396Z,3.63
2022-11-26T22:24:16.483Z,3.07
2022-11-26T22:26:45.738Z,1.83
2022-11-26T22:29:15.275Z,11.47
2022-11-26T22:31:44.927Z,10.73
2022-11-26T22:34:18.053Z,17.10
2022-11-26T22:36:46.903Z,16.00
2022-11-26T22:39:17.512Z,16.47
2022-11-26T22:41:48.019Z,24.70
2022-11-26T22:44:17.527Z,17.20
2022-11-26T22:46:46.443Z,12.47
2022-11-26T22:49:18.996Z,18.00
2022-11-26T22:51:48.118Z,11.77
2022-11-26T22:54:18.047Z,18.43
2022-11-26T22:56:46.740Z,12.90
2022-11-26T22:59:15.989Z,9.83
2022-11-26T23:01:44.683Z,16.23
2022-11-26T23:04:13.380Z,19.30
2022-11-26T23:06:43.354Z,9.70
2022-11-26T23:09:13.447Z,8.30
2022-11-26T23:11:43.458Z,6.80
2022-11-26T23:14:12.424Z,11.83
2022-11-26T23:16:42.571Z,16.33
2022-11-26T23:19:12.204Z,9.60
2022-11-26T23:21:44.671Z,7.33
2022-11-26T23:24:13.715Z,4.47
2022-11-26T23:26:42.906Z,4.73
2022-11-26T23:29:12.476Z,9.13
2022-11-26T23:31:42.756Z,4.03
2022-11-26T23:34:11.915Z,7.10
2022-11-26T23:36:40.814Z,7.97
2022-11-26T23:39:13.849Z,15.93
2022-11-26T23:41:43.708Z,14.87
2022-11-26T23:44:12.219Z,19.27
2022-11-26T23:46:40.723Z,26.93
2022-11-26T23:49:09.135Z,8.43
2022-11-26T23:51:37.547Z,15.47
2022-11-26T23:54:06.089Z,6.67
2022-11-26T23:56:36.733Z,15.83
2022-11-26T23:59:06.298Z,31.27
